sensor_id;sensor_type;location;lat;lon;timestamp;pressure;altitude;pressure_sealevel;temperature;humidity
7309;BME280;3695;53.330;9.876;2022-08-18T00:02:06;109742.66;;;19.60;70.71
7309;BME280;3695;53.330;9.876;2022-08-18T00:04:34;109813.38;;;19.61;70.83
7309;BME280;3695;53.330;9.876;2022-08-18T00:07:04;109577.47;;;19.55;71.00
7309;BME280;3695;53.330;9.876;2022-08-18T00:09:32;110142.94;;;19.69;70.95
7309;BME280;3695;53.330;9.876;2022-08-18T00:12:00;110028.16;;;19.67;71.09
7309;BME280;3695;53.330;9.876;2022-08-18T00:14:27;110204.50;;;19.70;71.03
7309;BME280;3695;53.330;9.876;2022-08-18T00:16:55;110255.06;;;19.69;71.07
7309;BME280;3695;53.330;9.876;2022-08-18T00:19:22;110426.78;;;19.74;71.00
7309;BME280;3695;53.330;9.876;2022-08-18T00:21:49;110105.25;;;19.70;71.02
7309;BME280;3695;53.330;9.876;2022-08-18T00:24:15;109994.22;;;19.65;71.11
7309;BME280;3695;53.330;9.876;2022-08-18T00:26:42;109188.34;;;19.47;71.37
7309;BME280;3695;53.330;9.876;2022-08-18T00:29:08;108466.13;;;19.37;71.52
7309;BME280;3695;53.330;9.876;2022-08-18T00:31:35;107454.94;;;19.19;71.72
7309;BME280;3695;53.330;9.876;2022-08-18T00:34:03;107299.78;;;19.21;71.53
7309;BME280;3695;53.330;9.876;2022-08-18T00:36:30;107364.75;;;19.23;71.36
7309;BME280;3695;53.330;9.876;2022-08-18T00:38:58;107267.50;;;19.23;71.27
7309;BME280;3695;53.330;9.876;2022-08-18T00:41:25;107361.75;;;19.26;71.17
7309;BME280;3695;53.330;9.876;2022-08-18T00:43:53;107382.91;;;19.26;71.20
7309;BME280;3695;53.330;9.876;2022-08-18T00:46:23;106540.34;;;19.08;71.40
7309;BME280;3695;53.330;9.876;2022-08-18T00:48:50;107123.50;;;19.22;71.06
7309;BME280;3695;53.330;9.876;2022-08-18T00:51:23;107331.59;;;19.25;71.08
7309;BME280;3695;53.330;9.876;2022-08-18T00:53:55;107548.75;;;19.29;71.03
7309;BME280;3695;53.330;9.876;2022-08-18T00:56:26;107071.94;;;19.24;71.09
7309;BME280;3695;53.330;9.876;2022-08-18T00:58:58;107223.22;;;19.26;71.04
7309;BME280;3695;53.330;9.876;2022-08-18T01:01:28;107699.63;;;19.37;70.93
7309;BME280;3695;53.330;9.876;2022-08-18T01:04:05;107753.81;;;19.36;71.06
7309;BME280;3695;53.330;9.876;2022-08-18T01:06:38;107862.00;;;19.38;71.10
7309;BME280;3695;53.330;9.876;2022-08-18T01:09:07;108350.72;;;19.48;71.03
7309;BME280;3695;53.330;9.876;2022-08-18T01:11:34;108773.69;;;19.56;71.05
7309;BME280;3695;53.330;9.876;2022-08-18T01:14:02;108643.38;;;19.54;71.25
7309;BME280;3695;53.330;9.876;2022-08-18T01:16:29;108811.38;;;19.55;71.31
7309;BME280;3695;53.330;9.876;2022-08-18T01:19:19;108292.38;;;19.42;71.65
7309;BME280;3695;53.330;9.876;2022-08-18T01:22:10;106438.81;;;19.05;72.27
7309;BME280;3695;53.330;9.876;2022-08-18T01:24:40;107072.81;;;19.25;71.90
7309;BME280;3695;53.330;9.876;2022-08-18T01:27:38;105166.44;;;18.76;72.62
7309;BME280;3695;53.330;9.876;2022-08-18T01:30:08;105511.72;;;18.87;72.12
7309;BME280;3695;53.330;9.876;2022-08-18T01:32:37;106844.13;;;19.16;71.54
7309;BME280;3695;53.330;9.876;2022-08-18T01:35:05;106538.59;;;19.07;71.80
7309;BME280;3695;53.330;9.876;2022-08-18T01:37:35;104732.31;;;18.67;72.32
7309;BME280;3695;53.330;9.876;2022-08-18T01:40:04;104774.03;;;18.70;71.96
7309;BME280;3695;53.330;9.876;2022-08-18T01:42:32;104572.22;;;18.65;71.77
7309;BME280;3695;53.330;9.876;2022-08-18T01:44:58;104276.16;;;18.59;71.63
7309;BME280;3695;53.330;9.876;2022-08-18T01:47:24;104595.75;;;18.67;71.31
7309;BME280;3695;53.330;9.876;2022-08-18T01:49:52;104052.28;;;18.54;71.35
7309;BME280;3695;53.330;9.876;2022-08-18T01:52:20;103993.09;;;18.52;71.09
7309;BME280;3695;53.330;9.876;2022-08-18T01:54:47;104250.78;;;18.56;70.87
7309;BME280;3695;53.330;9.876;2022-08-18T01:57:17;103990.34;;;18.52;70.77
7309;BME280;3695;53.330;9.876;2022-08-18T01:59:44;104501.63;;;18.65;70.38
7309;BME280;3695;53.330;9.876;2022-08-18T02:02:14;103842.41;;;18.49;70.47
7309;BME280;3695;53.330;9.876;2022-08-18T02:04:42;104102.41;;;18.56;70.22
7309;BME280;3695;53.330;9.876;2022-08-18T02:07:11;103589.41;;;18.44;70.33
7309;BME280;3695;53.330;9.876;2022-08-18T02:09:40;105054.56;;;18.77;69.79
7309;BME280;3695;53.330;9.876;2022-08-18T02:12:07;104141.25;;;18.53;70.29
7309;BME280;3695;53.330;9.876;2022-08-18T02:14:35;104185.69;;;18.57;70.16
7309;BME280;3695;53.330;9.876;2022-08-18T02:17:04;104144.47;;;18.57;70.14
7309;BME280;3695;53.330;9.876;2022-08-18T02:19:33;103956.34;;;18.53;70.15
7309;BME280;3695;53.330;9.876;2022-08-18T02:22:00;103564.72;;;18.44;70.26
7309;BME280;3695;53.330;9.876;2022-08-18T02:24:26;103847.50;;;18.52;70.04
7309;BME280;3695;53.330;9.876;2022-08-18T02:26:53;103863.97;;;18.52;70.06
7309;BME280;3695;53.330;9.876;2022-08-18T02:29:19;103430.53;;;18.41;70.15
7309;BME280;3695;53.330;9.876;2022-08-18T02:31:47;103613.78;;;18.47;69.90
7309;BME280;3695;53.330;9.876;2022-08-18T02:34:13;103443.88;;;18.44;69.74
7309;BME280;3695;53.330;9.876;2022-08-18T02:36:40;103519.53;;;18.46;69.56
7309;BME280;3695;53.330;9.876;2022-08-18T02:39:06;104614.63;;;18.70;69.28
7309;BME280;3695;53.330;9.876;2022-08-18T02:41:33;105557.13;;;18.91;69.16
7309;BME280;3695;53.330;9.876;2022-08-18T02:44:01;104859.06;;;18.72;69.68
7309;BME280;3695;53.330;9.876;2022-08-18T02:46:28;103781.97;;;18.49;70.11
7309;BME280;3695;53.330;9.876;2022-08-18T02:48:58;104358.91;;;18.64;69.99
7309;BME280;3695;53.330;9.876;2022-08-18T02:51:24;103290.91;;;18.38;70.51
7309;BME280;3695;53.330;9.876;2022-08-18T02:53:51;103609.50;;;18.44;70.25
7309;BME280;3695;53.330;9.876;2022-08-18T02:56:19;103101.25;;;18.33;70.43
7309;BME280;3695;53.330;9.876;2022-08-18T02:58:48;103283.31;;;18.40;70.19
7309;BME280;3695;53.330;9.876;2022-08-18T03:01:17;103465.84;;;18.44;70.06
7309;BME280;3695;53.330;9.876;2022-08-18T03:03:43;103375.84;;;18.39;70.21
7309;BME280;3695;53.330;9.876;2022-08-18T03:06:11;102797.81;;;18.23;70.12
7309;BME280;3695;53.330;9.876;2022-08-18T03:08:38;103421.66;;;18.39;69.65
7309;BME280;3695;53.330;9.876;2022-08-18T03:11:04;103815.31;;;18.46;69.48
7309;BME280;3695;53.330;9.876;2022-08-18T03:13:31;104216.94;;;18.56;69.42
7309;BME280;3695;53.330;9.876;2022-08-18T03:15:57;104187.75;;;18.55;69.47
7309;BME280;3695;53.330;9.876;2022-08-18T03:18:24;104795.34;;;18.68;69.42
7309;BME280;3695;53.330;9.876;2022-08-18T03:20:50;103967.72;;;18.50;69.78
7309;BME280;3695;53.330;9.876;2022-08-18T03:23:18;103606.09;;;18.42;70.02
7309;BME280;3695;53.330;9.876;2022-08-18T03:25:47;102819.16;;;18.21;70.29
7309;BME280;3695;53.330;9.876;2022-08-18T03:28:15;102532.47;;;18.17;70.21
7309;BME280;3695;53.330;9.876;2022-08-18T03:30:42;102545.59;;;18.15;70.11
7309;BME280;3695;53.330;9.876;2022-08-18T03:33:09;102470.88;;;18.13;70.08
7309;BME280;3695;53.330;9.876;2022-08-18T03:35:36;102303.34;;;18.08;70.08
7309;BME280;3695;53.330;9.876;2022-08-18T03:38:02;102563.34;;;18.13;69.92
7309;BME280;3695;53.330;9.876;2022-08-18T03:40:30;102672.91;;;18.14;69.79
7309;BME280;3695;53.330;9.876;2022-08-18T03:42:57;102624.56;;;18.13;69.79
7309;BME280;3695;53.330;9.876;2022-08-18T03:45:24;103418.06;;;18.32;69.46
7309;BME280;3695;53.330;9.876;2022-08-18T03:47:53;102481.72;;;18.08;69.81
7309;BME280;3695;53.330;9.876;2022-08-18T03:50:19;102370.50;;;18.06;69.87
7309;BME280;3695;53.330;9.876;2022-08-18T03:52:49;102254.06;;;18.02;69.85
7309;BME280;3695;53.330;9.876;2022-08-18T03:55:16;102326.00;;;18.04;69.73
7309;BME280;3695;53.330;9.876;2022-08-18T03:57:45;101947.97;;;17.94;69.72
7309;BME280;3695;53.330;9.876;2022-08-18T04:00:12;102005.31;;;17.96;69.45
7309;BME280;3695;53.330;9.876;2022-08-18T04:02:38;102464.63;;;18.06;69.13
7309;BME280;3695;53.330;9.876;2022-08-18T04:05:06;102279.59;;;18.02;69.11
7309;BME280;3695;53.330;9.876;2022-08-18T04:07:34;102779.94;;;18.14;68.84
7309;BME280;3695;53.330;9.876;2022-08-18T04:10:00;102479.81;;;18.09;68.86
7309;BME280;3695;53.330;9.876;2022-08-18T04:12:27;102378.50;;;18.07;68.82
7309;BME280;3695;53.330;9.876;2022-08-18T04:14:55;102241.78;;;18.04;68.78
7309;BME280;3695;53.330;9.876;2022-08-18T04:17:22;102175.94;;;18.04;68.70
7309;BME280;3695;53.330;9.876;2022-08-18T04:19:49;102469.66;;;18.09;68.55
7309;BME280;3695;53.330;9.876;2022-08-18T04:22:16;102256.56;;;18.03;68.66
7309;BME280;3695;53.330;9.876;2022-08-18T04:24:43;102145.16;;;18.02;68.58
7309;BME280;3695;53.330;9.876;2022-08-18T04:27:09;102297.03;;;18.08;68.41
7309;BME280;3695;53.330;9.876;2022-08-18T04:29:37;102392.59;;;18.11;68.33
7309;BME280;3695;53.330;9.876;2022-08-18T04:32:05;102825.50;;;18.22;68.12
7309;BME280;3695;53.330;9.876;2022-08-18T04:34:32;102525.78;;;18.13;68.22
7309;BME280;3695;53.330;9.876;2022-08-18T04:36:59;103027.75;;;18.28;67.98
7309;BME280;3695;53.330;9.876;2022-08-18T04:39:27;103657.91;;;18.45;67.89
7309;BME280;3695;53.330;9.876;2022-08-18T04:41:53;103123.44;;;18.31;68.23
7309;BME280;3695;53.330;9.876;2022-08-18T04:44:20;102975.38;;;18.30;68.31
7309;BME280;3695;53.330;9.876;2022-08-18T04:46:48;104085.72;;;18.58;68.02
7309;BME280;3695;53.330;9.876;2022-08-18T04:49:18;104183.25;;;18.62;68.12
7309;BME280;3695;53.330;9.876;2022-08-18T04:51:47;103718.19;;;18.53;68.34
7309;BME280;3695;53.330;9.876;2022-08-18T04:54:38;104853.03;;;18.84;67.99
7309;BME280;3695;53.330;9.876;2022-08-18T04:57:08;105006.16;;;18.92;68.05
7309;BME280;3695;53.330;9.876;2022-08-18T04:59:36;104840.47;;;18.90;68.19
7309;BME280;3695;53.330;9.876;2022-08-18T05:02:04;104860.75;;;18.89;68.33
7309;BME280;3695;53.330;9.876;2022-08-18T05:04:34;103961.81;;;18.68;68.76
7309;BME280;3695;53.330;9.876;2022-08-18T05:07:02;103826.91;;;18.63;68.89
7309;BME280;3695;53.330;9.876;2022-08-18T05:09:29;103835.31;;;18.61;68.99
7309;BME280;3695;53.330;9.876;2022-08-18T05:11:55;102548.88;;;18.24;69.53
7309;BME280;3695;53.330;9.876;2022-08-18T05:14:22;104158.13;;;18.65;68.98
7309;BME280;3695;53.330;9.876;2022-08-18T05:16:49;105155.81;;;18.90;68.78
7309;BME280;3695;53.330;9.876;2022-08-18T05:19:19;105431.19;;;18.95;68.61
7309;BME280;3695;53.330;9.876;2022-08-18T05:21:48;104758.88;;;18.82;68.81
7309;BME280;3695;53.330;9.876;2022-08-18T05:24:14;105056.81;;;18.90;68.75
7309;BME280;3695;53.330;9.876;2022-08-18T05:26:41;104703.03;;;18.82;68.85
7309;BME280;3695;53.330;9.876;2022-08-18T05:29:10;104961.44;;;18.90;68.88
7309;BME280;3695;53.330;9.876;2022-08-18T05:31:36;104240.94;;;18.77;69.06
7309;BME280;3695;53.330;9.876;2022-08-18T05:34:03;104168.63;;;18.76;69.04
7309;BME280;3695;53.330;9.876;2022-08-18T05:36:42;104344.44;;;18.84;68.87
7309;BME280;3695;53.330;9.876;2022-08-18T05:39:20;103284.59;;;18.57;69.18
7309;BME280;3695;53.330;9.876;2022-08-18T05:41:49;103505.69;;;18.68;68.86
7309;BME280;3695;53.330;9.876;2022-08-18T05:44:21;101495.56;;;18.04;70.00
7309;BME280;3695;53.330;9.876;2022-08-18T05:46:50;102650.94;;;18.39;67.40
7309;BME280;3695;53.330;9.876;2022-08-18T05:49:18;102750.38;;;18.48;67.00
7309;BME280;3695;53.330;9.876;2022-08-18T05:51:47;101822.91;;;18.21;67.06
7309;BME280;3695;53.330;9.876;2022-08-18T05:54:17;102948.91;;;18.55;66.25
7309;BME280;3695;53.330;9.876;2022-08-18T05:57:04;103100.38;;;18.59;65.93
7309;BME280;3695;53.330;9.876;2022-08-18T05:59:33;102075.16;;;18.23;65.71
7309;BME280;3695;53.330;9.876;2022-08-18T06:02:06;102960.53;;;18.44;64.72
7309;BME280;3695;53.330;9.876;2022-08-18T06:04:42;102758.84;;;18.40;64.09
7309;BME280;3695;53.330;9.876;2022-08-18T06:07:13;103047.16;;;18.40;63.63
7309;BME280;3695;53.330;9.876;2022-08-18T06:09:47;103235.16;;;18.44;63.34
7309;BME280;3695;53.330;9.876;2022-08-18T06:12:21;102781.75;;;18.27;63.16
7309;BME280;3695;53.330;9.876;2022-08-18T06:14:49;103182.34;;;18.42;62.65
7309;BME280;3695;53.330;9.876;2022-08-18T06:17:35;102923.38;;;18.41;62.51
7309;BME280;3695;53.330;9.876;2022-08-18T06:20:16;103060.06;;;18.46;62.30
7309;BME280;3695;53.330;9.876;2022-08-18T06:22:51;102210.06;;;18.08;62.65
7309;BME280;3695;53.330;9.876;2022-08-18T06:25:27;103306.16;;;18.47;61.78
7309;BME280;3695;53.330;9.876;2022-08-18T06:28:00;103481.53;;;18.56;61.67
7309;BME280;3695;53.330;9.876;2022-08-18T06:30:42;103629.59;;;18.79;61.57
7309;BME280;3695;53.330;9.876;2022-08-18T06:33:29;102486.59;;;18.43;62.14
7309;BME280;3695;53.330;9.876;2022-08-18T06:36:02;102508.97;;;18.46;62.24
7309;BME280;3695;53.330;9.876;2022-08-18T06:38:40;103064.03;;;18.63;62.06
7309;BME280;3695;53.330;9.876;2022-08-18T06:41:17;102700.72;;;18.49;62.19
7309;BME280;3695;53.330;9.876;2022-08-18T06:43:52;102908.53;;;18.55;61.98
7309;BME280;3695;53.330;9.876;2022-08-18T06:46:27;102165.97;;;18.33;62.21
7309;BME280;3695;53.330;9.876;2022-08-18T06:49:01;102736.97;;;18.58;61.85
7309;BME280;3695;53.330;9.876;2022-08-18T06:51:28;102089.47;;;18.37;62.25
7309;BME280;3695;53.330;9.876;2022-08-18T06:53:57;102424.50;;;18.42;61.80
7309;BME280;3695;53.330;9.876;2022-08-18T06:56:32;102559.75;;;18.55;61.57
7309;BME280;3695;53.330;9.876;2022-08-18T06:59:19;102729.72;;;18.70;61.46
7309;BME280;3695;53.330;9.876;2022-08-18T07:01:49;102796.66;;;18.76;61.43
7309;BME280;3695;53.330;9.876;2022-08-18T07:04:32;102753.84;;;18.86;61.43
7309;BME280;3695;53.330;9.876;2022-08-18T07:07:11;102377.44;;;18.86;61.50
7309;BME280;3695;53.330;9.876;2022-08-18T07:09:38;102441.63;;;18.92;61.54
7309;BME280;3695;53.330;9.876;2022-08-18T07:12:08;102074.53;;;18.79;61.66
7309;BME280;3695;53.330;9.876;2022-08-18T07:14:48;102304.50;;;19.02;61.41
7309;BME280;3695;53.330;9.876;2022-08-18T07:17:20;102185.03;;;19.05;61.48
7309;BME280;3695;53.330;9.876;2022-08-18T07:19:54;102105.22;;;19.00;61.64
7309;BME280;3695;53.330;9.876;2022-08-18T07:22:21;101780.56;;;18.91;61.80
7309;BME280;3695;53.330;9.876;2022-08-18T07:24:49;102078.44;;;19.07;61.70
7309;BME280;3695;53.330;9.876;2022-08-18T07:27:19;101717.22;;;18.98;61.82
7309;BME280;3695;53.330;9.876;2022-08-18T07:30:01;102244.16;;;19.19;61.67
7309;BME280;3695;53.330;9.876;2022-08-18T07:32:34;102036.72;;;19.10;61.79
7309;BME280;3695;53.330;9.876;2022-08-18T07:35:04;102061.06;;;19.18;61.79
7309;BME280;3695;53.330;9.876;2022-08-18T07:37:37;101942.31;;;19.16;61.89
7309;BME280;3695;53.330;9.876;2022-08-18T07:40:12;101819.38;;;19.28;61.79
7309;BME280;3695;53.330;9.876;2022-08-18T07:42:47;102084.25;;;19.50;61.68
7309;BME280;3695;53.330;9.876;2022-08-18T07:45:21;102317.50;;;19.77;61.60
7309;BME280;3695;53.330;9.876;2022-08-18T07:47:54;102296.09;;;19.79;61.80
7309;BME280;3695;53.330;9.876;2022-08-18T07:50:24;101660.38;;;19.59;62.22
7309;BME280;3695;53.330;9.876;2022-08-18T07:53:05;102408.69;;;19.92;62.06
7309;BME280;3695;53.330;9.876;2022-08-18T07:55:35;101855.59;;;19.75;62.52
7309;BME280;3695;53.330;9.876;2022-08-18T07:58:13;102538.63;;;19.94;62.54
7309;BME280;3695;53.330;9.876;2022-08-18T08:00:46;102583.03;;;19.98;62.68
7309;BME280;3695;53.330;9.876;2022-08-18T08:03:24;103424.78;;;20.27;62.57
7309;BME280;3695;53.330;9.876;2022-08-18T08:06:02;102287.59;;;19.92;63.16
7309;BME280;3695;53.330;9.876;2022-08-18T08:08:36;102937.72;;;20.12;63.10
7309;BME280;3695;53.330;9.876;2022-08-18T08:11:20;103706.19;;;20.37;62.81
7309;BME280;3695;53.330;9.876;2022-08-18T08:14:00;102446.13;;;19.93;63.42
7309;BME280;3695;53.330;9.876;2022-08-18T08:16:39;103677.34;;;20.27;63.17
7309;BME280;3695;53.330;9.876;2022-08-18T08:19:23;103195.06;;;20.10;63.53
7309;BME280;3695;53.330;9.876;2022-08-18T08:22:01;104417.06;;;20.37;63.35
7309;BME280;3695;53.330;9.876;2022-08-18T08:24:33;104185.63;;;20.16;63.75
7309;BME280;3695;53.330;9.876;2022-08-18T08:27:08;104836.44;;;20.41;63.60
7309;BME280;3695;53.330;9.876;2022-08-18T08:29:45;104842.31;;;20.38;63.81
7309;BME280;3695;53.330;9.876;2022-08-18T08:32:15;105393.38;;;20.48;63.89
7309;BME280;3695;53.330;9.876;2022-08-18T08:34:48;106377.00;;;20.83;63.68
7309;BME280;3695;53.330;9.876;2022-08-18T08:37:19;105627.38;;;20.51;64.35
7309;BME280;3695;53.330;9.876;2022-08-18T08:39:50;107418.94;;;21.08;63.90
7309;BME280;3695;53.330;9.876;2022-08-18T08:42:23;107257.97;;;20.96;64.36
7309;BME280;3695;53.330;9.876;2022-08-18T08:44:55;107197.84;;;20.67;65.02
7309;BME280;3695;53.330;9.876;2022-08-18T08:47:28;107538.72;;;20.60;65.16
7309;BME280;3695;53.330;9.876;2022-08-18T08:49:59;109373.88;;;20.98;64.90
7309;BME280;3695;53.330;9.876;2022-08-18T08:52:30;108994.75;;;20.79;65.20
7309;BME280;3695;53.330;9.876;2022-08-18T08:55:04;110443.28;;;20.90;65.38
7309;BME280;3695;53.330;9.876;2022-08-18T08:57:37;111494.78;;;21.05;65.45
7309;BME280;3695;53.330;9.876;2022-08-18T09:00:10;110858.97;;;20.77;66.13
7309;BME280;3695;53.330;9.876;2022-08-18T09:02:56;113059.75;;;21.23;65.52
7309;BME280;3695;53.330;9.876;2022-08-18T09:05:29;113139.88;;;21.13;65.66
7309;BME280;3695;53.330;9.876;2022-08-18T09:08:21;114325.31;;;21.34;65.10
7309;BME280;3695;53.330;9.876;2022-08-18T09:11:12;113076.13;;;20.87;65.20
7309;BME280;3695;53.330;9.876;2022-08-18T09:16:51;115405.28;;;21.23;63.76
7309;BME280;3695;53.330;9.876;2022-08-18T09:19:34;116719.09;;;21.47;63.12
7309;BME280;3695;53.330;9.876;2022-08-18T09:22:11;117855.97;;;21.71;62.80
7309;BME280;3695;53.330;9.876;2022-08-18T09:24:48;118465.84;;;21.81;62.56
7309;BME280;3695;53.330;9.876;2022-08-18T09:27:41;119676.53;;;22.04;62.43
7309;BME280;3695;53.330;9.876;2022-08-18T09:33:19;119603.59;;;21.87;63.11
7309;BME280;3695;53.330;9.876;2022-08-18T09:35:56;119932.44;;;21.92;63.09
7309;BME280;3695;53.330;9.876;2022-08-18T09:38:29;119501.00;;;21.79;63.17
7309;BME280;3695;53.330;9.876;2022-08-18T09:41:21;120925.00;;;22.15;62.93
7309;BME280;3695;53.330;9.876;2022-08-18T09:44:01;120686.13;;;22.06;63.03
7309;BME280;3695;53.330;9.876;2022-08-18T09:46:56;122612.75;;;22.47;62.88
7309;BME280;3695;53.330;9.876;2022-08-18T09:49:47;121565.63;;;22.16;63.71
7309;BME280;3695;53.330;9.876;2022-08-18T09:55:42;122890.50;;;22.40;64.31
7309;BME280;3695;53.330;9.876;2022-08-18T09:58:43;122016.31;;;22.15;65.16
7309;BME280;3695;53.330;9.876;2022-08-18T10:01:32;124432.94;;;22.80;64.29
7309;BME280;3695;53.330;9.876;2022-08-18T10:07:16;123086.56;;;22.38;66.49
7309;BME280;3695;53.330;9.876;2022-08-18T10:09:51;122598.66;;;22.27;66.95
7309;BME280;3695;53.330;9.876;2022-08-18T10:12:49;123449.56;;;22.59;65.95
7309;BME280;3695;53.330;9.876;2022-08-18T10:18:33;124596.19;;;22.85;65.86
7309;BME280;3695;53.330;9.876;2022-08-18T10:21:09;124811.53;;;22.91;65.82
7309;BME280;3695;53.330;9.876;2022-08-18T10:23:50;125250.03;;;23.04;65.65
7309;BME280;3695;53.330;9.876;2022-08-18T10:29:55;124643.84;;;22.77;67.66
7309;BME280;3695;53.330;9.876;2022-08-18T10:32:42;124976.28;;;22.94;66.89
7309;BME280;3695;53.330;9.876;2022-08-18T10:38:23;125972.78;;;23.17;66.13
7309;BME280;3695;53.330;9.876;2022-08-18T10:40:59;124920.25;;;22.87;66.86
7309;BME280;3695;53.330;9.876;2022-08-18T10:43:35;123847.19;;;22.65;66.98
7309;BME280;3695;53.330;9.876;2022-08-18T10:46:03;124258.31;;;22.68;67.20
7309;BME280;3695;53.330;9.876;2022-08-18T10:48:32;125308.66;;;23.00;66.46
7309;BME280;3695;53.330;9.876;2022-08-18T10:51:05;126363.91;;;23.28;65.68
7309;BME280;3695;53.330;9.876;2022-08-18T10:53:43;125443.44;;;23.06;66.06
7309;BME280;3695;53.330;9.876;2022-08-18T10:56:25;126108.03;;;23.11;66.81
7309;BME280;3695;53.330;9.876;2022-08-18T10:59:05;129573.63;;;24.05;65.55
7309;BME280;3695;53.330;9.876;2022-08-18T11:01:56;130733.84;;;24.24;66.89
7309;BME280;3695;53.330;9.876;2022-08-18T11:04:29;130488.16;;;24.00;70.26
7309;BME280;3695;53.330;9.876;2022-08-18T11:07:02;129509.25;;;23.67;74.38
7309;BME280;3695;53.330;9.876;2022-08-18T11:09:31;130262.38;;;23.91;74.53
7309;BME280;3695;53.330;9.876;2022-08-18T11:12:01;130612.72;;;24.00;75.25
7309;BME280;3695;53.330;9.876;2022-08-18T11:14:43;130791.59;;;24.04;75.12
7309;BME280;3695;53.330;9.876;2022-08-18T11:17:21;131960.19;;;24.33;76.19
7309;BME280;3695;53.330;9.876;2022-08-18T11:19:50;129931.72;;;23.72;81.31
7309;BME280;3695;53.330;9.876;2022-08-18T11:22:22;130646.06;;;23.96;80.62
7309;BME280;3695;53.330;9.876;2022-08-18T11:24:50;132436.78;;;24.44;78.26
7309;BME280;3695;53.330;9.876;2022-08-18T11:27:20;131569.34;;;24.15;82.31
7309;BME280;3695;53.330;9.876;2022-08-18T11:29:47;133495.97;;;24.64;82.34
7309;BME280;3695;53.330;9.876;2022-08-18T11:32:19;134093.19;;;24.71;90.13
7309;BME280;3695;53.330;9.876;2022-08-18T11:34:50;134231.50;;;24.69;99.27
7309;BME280;3695;53.330;9.876;2022-08-18T11:37:25;134335.44;;;24.73;100.00
7309;BME280;3695;53.330;9.876;2022-08-18T11:39:55;134723.34;;;24.87;96.65
7309;BME280;3695;53.330;9.876;2022-08-18T11:42:27;134653.47;;;24.84;97.96
7309;BME280;3695;53.330;9.876;2022-08-18T11:45:03;135256.69;;;24.94;100.00
7309;BME280;3695;53.330;9.876;2022-08-18T11:47:30;135156.75;;;24.85;100.00
7309;BME280;3695;53.330;9.876;2022-08-18T11:50:06;136258.94;;;25.19;100.00
7309;BME280;3695;53.330;9.876;2022-08-18T11:52:47;135841.72;;;25.06;100.00
7309;BME280;3695;53.330;9.876;2022-08-18T11:55:20;136189.53;;;25.16;100.00
7309;BME280;3695;53.330;9.876;2022-08-18T11:57:54;136610.22;;;25.27;100.00
7309;BME280;3695;53.330;9.876;2022-08-18T12:00:42;137170.75;;;25.45;100.00
7309;BME280;3695;53.330;9.876;2022-08-18T12:03:26;136866.34;;;25.33;100.00
7309;BME280;3695;53.330;9.876;2022-08-18T12:05:56;133396.84;;;24.36;100.00
7309;BME280;3695;53.330;9.876;2022-08-18T12:08:29;134986.47;;;24.87;100.00
7309;BME280;3695;53.330;9.876;2022-08-18T12:11:05;134091.47;;;24.60;100.00
7309;BME280;3695;53.330;9.876;2022-08-18T12:13:40;135223.78;;;24.90;100.00
7309;BME280;3695;53.330;9.876;2022-08-18T12:16:15;134638.66;;;24.76;100.00
7309;BME280;3695;53.330;9.876;2022-08-18T12:18:43;136169.72;;;25.26;92.67
7309;BME280;3695;53.330;9.876;2022-08-18T12:21:10;138640.53;;;25.87;91.17
7309;BME280;3695;53.330;9.876;2022-08-18T12:23:39;138439.84;;;25.68;100.00
7309;BME280;3695;53.330;9.876;2022-08-18T12:26:08;137682.72;;;25.42;100.00
7309;BME280;3695;53.330;9.876;2022-08-18T12:28:35;136915.19;;;25.21;100.00
7309;BME280;3695;53.330;9.876;2022-08-18T12:31:04;138779.78;;;25.89;97.31
7309;BME280;3695;53.330;9.876;2022-08-18T12:33:31;138282.16;;;25.67;100.00
7309;BME280;3695;53.330;9.876;2022-08-18T12:35:57;138259.63;;;25.64;100.00
7309;BME280;3695;53.330;9.876;2022-08-18T12:38:24;138859.31;;;25.79;100.00
7309;BME280;3695;53.330;9.876;2022-08-18T12:40:51;139207.66;;;25.92;100.00
7309;BME280;3695;53.330;9.876;2022-08-18T12:43:19;138849.47;;;25.66;100.00
7309;BME280;3695;53.330;9.876;2022-08-18T12:45:46;137322.69;;;25.24;100.00
7309;BME280;3695;53.330;9.876;2022-08-18T12:48:12;138748.66;;;25.76;100.00
7309;BME280;3695;53.330;9.876;2022-08-18T12:50:39;138854.59;;;25.69;100.00
7309;BME280;3695;53.330;9.876;2022-08-18T12:53:08;139035.41;;;25.72;100.00
7309;BME280;3695;53.330;9.876;2022-08-18T12:55:36;139515.13;;;25.84;100.00
7309;BME280;3695;53.330;9.876;2022-08-18T12:58:03;140383.75;;;26.07;100.00
7309;BME280;3695;53.330;9.876;2022-08-18T13:00:31;140421.03;;;26.11;100.00
7309;BME280;3695;53.330;9.876;2022-08-18T13:02:58;139732.78;;;25.78;100.00
7309;BME280;3695;53.330;9.876;2022-08-18T13:05:24;141013.22;;;26.20;100.00
7309;BME280;3695;53.330;9.876;2022-08-18T13:07:51;138902.16;;;25.43;100.00
7309;BME280;3695;53.330;9.876;2022-08-18T13:10:18;140108.25;;;25.88;100.00
7309;BME280;3695;53.330;9.876;2022-08-18T13:12:45;140927.63;;;26.17;100.00
7309;BME280;3695;53.330;9.876;2022-08-18T13:15:11;140188.44;;;25.85;100.00
7309;BME280;3695;53.330;9.876;2022-08-18T13:17:39;142371.22;;;26.49;100.00
7309;BME280;3695;53.330;9.876;2022-08-18T13:20:08;143160.06;;;26.70;100.00
7309;BME280;3695;53.330;9.876;2022-08-18T13:22:35;139557.72;;;25.50;100.00
7309;BME280;3695;53.330;9.876;2022-08-18T13:25:06;143432.03;;;26.84;100.00
7309;BME280;3695;53.330;9.876;2022-08-18T13:27:33;142185.41;;;26.23;100.00
7309;BME280;3695;53.330;9.876;2022-08-18T13:30:00;144573.47;;;27.01;100.00
7309;BME280;3695;53.330;9.876;2022-08-18T13:32:27;146442.94;;;27.64;100.00
7309;BME280;3695;53.330;9.876;2022-08-18T13:34:54;148324.50;;;28.04;100.00
7309;BME280;3695;53.330;9.876;2022-08-18T13:37:21;147820.84;;;27.75;100.00
7309;BME280;3695;53.330;9.876;2022-08-18T13:39:50;146686.03;;;27.39;100.00
7309;BME280;3695;53.330;9.876;2022-08-18T13:42:17;148226.06;;;27.88;100.00
7309;BME280;3695;53.330;9.876;2022-08-18T13:44:43;147684.78;;;27.48;100.00
7309;BME280;3695;53.330;9.876;2022-08-18T13:47:11;148320.84;;;27.81;100.00
7309;BME280;3695;53.330;9.876;2022-08-18T13:49:38;147132.91;;;27.32;100.00
7309;BME280;3695;53.330;9.876;2022-08-18T13:52:09;146354.63;;;27.06;100.00
7309;BME280;3695;53.330;9.876;2022-08-18T13:54:39;145593.28;;;26.74;100.00
7309;BME280;3695;53.330;9.876;2022-08-18T13:57:06;144831.88;;;26.64;100.00